createdAt,value
2022-11-01T00:02:14.164Z,19.50
2022-11-01T00:04:43.727Z,23.40
2022-11-01T00:07:13.506Z,24.23
2022-11-01T00:09:40.463Z,22.45
2022-11-01T00:12:07.752Z,19.65
2022-11-01T00:14:34.757Z,20.40
2022-11-01T00:17:02.744Z,19.70
2022-11-01T00:19:29.837Z,20.70
2022-11-01T00:21:57.283Z,18.55
2022-11-01T00:24:25.165Z,19.73
2022-11-01T00:26:52.354Z,18.52
2022-11-01T00:29:21.553Z,18.08
2022-11-01T00:31:48.739Z,17.33
2022-11-01T00:34:18.659Z,12.30
2022-11-01T00:36:46.075Z,14.50
2022-11-01T00:39:14.573Z,15.90
2022-11-01T00:41:42.126Z,15.70
2022-11-01T00:44:09.289Z,13.23
2022-11-01T00:46:39.043Z,16.33
2022-11-01T00:49:05.961Z,15.52
2022-11-01T00:51:33.125Z,14.13
2022-11-01T00:54:00.116Z,18.63
2022-11-01T00:56:30.329Z,17.10
2022-11-01T00:58:57.254Z,15.95
2022-11-01T01:01:24.923Z,15.98
2022-11-01T01:03:52.047Z,17.85
2022-11-01T01:06:21.598Z,19.30
2022-11-01T01:08:50.847Z,16.65
2022-11-01T01:11:18.119Z,19.15
2022-11-01T01:13:45.047Z,22.08
2022-11-01T01:16:14.810Z,18.75
2022-11-01T01:18:41.787Z,21.17
2022-11-01T01:21:09.643Z,16.08
2022-11-01T01:23:37.181Z,20.40
2022-11-01T01:26:09.040Z,18.40
2022-11-01T01:28:41.942Z,16.92
2022-11-01T01:31:13.664Z,18.75
2022-11-01T01:33:40.654Z,17.40
2022-11-01T01:36:08.152Z,16.48
2022-11-01T01:38:35.163Z,16.48
2022-11-01T01:41:21.236Z,15.77
2022-11-01T01:43:48.396Z,15.18
2022-11-01T01:46:15.649Z,16.15
2022-11-01T01:48:45.417Z,16.13
2022-11-01T01:51:17.780Z,16.80
2022-11-01T01:53:51.556Z,17.55
2022-11-01T01:56:24.238Z,19.55
2022-11-01T01:59:04.214Z,20.70
2022-11-01T02:01:34.136Z,25.90
2022-11-01T02:04:03.670Z,18.00
2022-11-01T02:06:33.583Z,20.27
2022-11-01T02:09:05.370Z,20.17
2022-11-01T02:11:33.031Z,16.63
2022-11-01T02:14:01.139Z,18.67
2022-11-01T02:16:43.574Z,20.67
2022-11-01T02:19:45.945Z,21.85
2022-11-01T02:22:50.788Z,24.98
2022-11-01T02:25:21.696Z,21.70
2022-11-01T02:28:20.367Z,19.08
2022-11-01T02:31:21.744Z,22.83
2022-11-01T02:33:56.216Z,22.08
2022-11-01T02:36:33.269Z,21.60
2022-11-01T02:39:09.931Z,23.25
2022-11-01T02:41:47.382Z,20.65
2022-11-01T02:44:23.595Z,22.60
2022-11-01T02:47:02.595Z,24.23
2022-11-01T02:49:53.758Z,21.95
2022-11-01T02:52:26.861Z,20.08
2022-11-01T02:54:59.501Z,23.65
2022-11-01T02:57:35.628Z,22.83
2022-11-01T03:00:21.337Z,23.00
2022-11-01T03:02:54.966Z,26.02
2022-11-01T03:05:30.763Z,22.40
2022-11-01T03:08:05.561Z,21.65
2022-11-01T03:10:42.635Z,21.20
2022-11-01T03:13:17.643Z,21.85
2022-11-01T03:15:57.200Z,24.33
2022-11-01T03:18:32.649Z,22.15
2022-11-01T03:21:18.145Z,27.20
2022-11-01T03:24:02.222Z,26.67
2022-11-01T03:26:33.523Z,23.30
2022-11-01T03:29:07.910Z,28.95
2022-11-01T03:31:38.815Z,22.48
2022-11-01T03:34:13.105Z,25.83
2022-11-01T03:36:47.287Z,27.85
2022-11-01T03:39:51.434Z,25.02
2022-11-01T03:42:21.754Z,24.55
2022-11-01T03:44:54.189Z,24.92
2022-11-01T03:47:21.536Z,24.85
2022-11-01T03:49:48.577Z,21.85
2022-11-01T03:52:15.772Z,23.75
2022-11-01T03:54:42.748Z,25.17
2022-11-01T03:57:10.087Z,24.15
2022-11-01T03:59:37.027Z,23.70
2022-11-01T04:02:04.527Z,23.02
2022-11-01T04:04:31.749Z,27.90
2022-11-01T04:06:59.039Z,26.40
2022-11-01T04:09:26.347Z,23.52
2022-11-01T04:11:53.499Z,25.75
2022-11-01T04:14:39.001Z,28.33
2022-11-01T04:17:24.727Z,31.05
2022-11-01T04:20:10.178Z,29.13
2022-11-01T04:22:40.727Z,31.90
2022-11-01T04:25:07.935Z,26.50
2022-11-01T04:27:35.072Z,30.27
2022-11-01T04:30:02.016Z,36.47
2022-11-01T04:32:29.205Z,28.98
2022-11-01T04:34:56.222Z,30.20
2022-11-01T04:37:23.443Z,30.77
2022-11-01T04:39:52.607Z,36.17
2022-11-01T04:42:19.871Z,29.50
2022-11-01T04:44:49.557Z,34.28
2022-11-01T04:47:16.740Z,36.65
2022-11-01T04:49:43.666Z,30.23
2022-11-01T04:52:10.828Z,32.58
2022-11-01T04:54:38.174Z,30.92
2022-11-01T04:57:05.357Z,28.60
2022-11-01T04:59:32.323Z,42.58
2022-11-01T05:01:59.573Z,34.00
2022-11-01T05:04:26.601Z,27.52
2022-11-01T05:06:53.767Z,28.55
2022-11-01T05:09:20.702Z,27.90
2022-11-01T05:11:47.866Z,27.05
2022-11-01T05:14:14.848Z,29.25
2022-11-01T05:16:42.081Z,28.17
2022-11-01T05:19:11.378Z,25.70
2022-11-01T05:21:38.495Z,26.70
2022-11-01T05:24:05.725Z,26.15
2022-11-01T05:26:32.978Z,22.92
2022-11-01T05:29:02.268Z,29.85
2022-11-01T05:31:39.465Z,27.83
2022-11-01T05:34:08.984Z,28.55
2022-11-01T05:36:36.236Z,23.23
2022-11-01T05:39:03.199Z,23.73
2022-11-01T05:41:30.271Z,23.95
2022-11-01T05:43:57.307Z,24.98
2022-11-01T05:46:24.525Z,25.45
2022-11-01T05:48:51.521Z,24.20
2022-11-01T05:51:18.673Z,25.92
2022-11-01T05:53:45.590Z,22.13
2022-11-01T05:56:13.618Z,24.23
2022-11-01T05:58:41.227Z,26.95
2022-11-01T06:01:09.311Z,27.38
2022-11-01T06:03:36.898Z,26.85
2022-11-01T06:06:04.639Z,30.27
2022-11-01T06:08:31.896Z,27.33
2022-11-01T06:11:06.088Z,26.83
2022-11-01T06:13:34.092Z,31.85
2022-11-01T06:16:06.628Z,29.55
2022-11-01T06:18:38.498Z,36.40
2022-11-01T06:21:06.287Z,31.42
2022-11-01T06:23:33.242Z,32.25
2022-11-01T06:26:04.771Z,34.05
2022-11-01T06:28:32.125Z,36.45
2022-11-01T06:33:32.963Z,36.28
2022-11-01T06:36:02.001Z,37.90
2022-11-01T06:38:29.110Z,44.88
2022-11-01T06:40:58.600Z,37.45
2022-11-01T06:43:28.676Z,33.92
2022-11-01T06:45:58.792Z,37.85
2022-11-01T06:48:25.829Z,40.15
2022-11-01T06:50:55.672Z,37.22
2022-11-01T06:53:24.214Z,38.00
2022-11-01T06:55:53.843Z,33.75
2022-11-01T06:58:23.146Z,35.88
2022-11-01T07:00:50.433Z,35.25
2022-11-01T07:03:17.534Z,33.08
2022-11-01T07:05:44.978Z,30.15
2022-11-01T07:08:13.398Z,34.75
2022-11-01T07:10:44.259Z,33.63
2022-11-01T07:13:15.673Z,32.55
2022-11-01T07:15:43.216Z,34.05
2022-11-01T07:18:10.168Z,38.20
2022-11-01T07:20:44.074Z,36.35
2022-11-01T07:23:16.766Z,37.28
2022-11-01T07:25:44.741Z,33.72
2022-11-01T07:28:12.383Z,39.63
2022-11-01T07:30:39.594Z,38.38
2022-11-01T07:33:07.096Z,42.55
2022-11-01T07:35:37.054Z,35.45
2022-11-01T07:38:07.975Z,37.42
2022-11-01T07:40:40.330Z,39.53
2022-11-01T07:43:07.665Z,43.60
2022-11-01T07:45:35.715Z,47.70
2022-11-01T07:48:10.321Z,48.25
2022-11-01T07:50:39.571Z,45.53
2022-11-01T07:53:12.588Z,51.58
2022-11-01T07:55:40.388Z,48.05
2022-11-01T07:58:10.615Z,39.60
2022-11-01T08:00:41.722Z,38.08
2022-11-01T08:03:12.333Z,38.88
2022-11-01T08:05:40.173Z,34.33
2022-11-01T08:08:10.990Z,33.47
2022-11-01T08:10:38.814Z,36.03
2022-11-01T08:13:22.221Z,32.47
2022-11-01T08:15:51.356Z,30.38
2022-11-01T08:18:22.457Z,32.25
2022-11-01T08:20:50.323Z,34.00
2022-11-01T08:23:17.542Z,35.15
2022-11-01T08:25:45.186Z,31.33
2022-11-01T08:28:20.122Z,35.38
2022-11-01T08:30:50.153Z,33.78
2022-11-01T08:33:19.588Z,33.60
2022-11-01T08:35:50.375Z,32.47
2022-11-01T08:38:18.679Z,34.45
2022-11-01T08:40:45.934Z,32.05
2022-11-01T08:43:12.898Z,34.13
2022-11-01T08:45:40.511Z,30.90
2022-11-01T08:48:09.239Z,29.15
2022-11-01T08:50:39.734Z,30.65
2022-11-01T08:53:12.741Z,31.15
2022-11-01T08:55:40.573Z,39.10
2022-11-01T08:58:08.566Z,32.10
2022-11-01T09:00:38.527Z,30.67
2022-11-01T09:03:05.665Z,37.38
2022-11-01T09:05:33.013Z,36.63
2022-11-01T09:08:01.262Z,36.25
2022-11-01T09:10:31.338Z,33.70
2022-11-01T09:13:01.899Z,32.88
2022-11-01T09:15:29.978Z,38.03
2022-11-01T09:17:56.972Z,31.95
2022-11-01T09:20:31.539Z,32.17
2022-11-01T09:22:59.918Z,32.85
2022-11-01T09:25:27.541Z,36.72
2022-11-01T09:27:56.761Z,29.73
2022-11-01T09:30:24.826Z,36.35
2022-11-01T09:32:54.458Z,34.65
2022-11-01T09:35:21.651Z,33.97
2022-11-01T09:37:48.815Z,40.80
2022-11-01T09:40:16.291Z,34.83
2022-11-01T09:42:47.661Z,37.92
2022-11-01T09:45:22.736Z,33.50
2022-11-01T09:47:56.133Z,21.03
2022-11-01T09:50:37.968Z,25.00
2022-11-01T09:53:09.671Z,23.48
2022-11-01T09:55:45.919Z,23.98
2022-11-01T09:58:34.727Z,24.23
2022-11-01T10:01:11.880Z,23.83
2022-11-01T10:04:16.449Z,23.08
2022-11-01T10:06:48.854Z,19.15
2022-11-01T10:09:46.279Z,22.80
2022-11-01T10:12:33.613Z,23.02
2022-11-01T10:15:17.332Z,21.30
2022-11-01T10:17:56.911Z,20.30
2022-11-01T10:20:32.966Z,21.73
2022-11-01T10:23:01.743Z,20.50
2022-11-01T10:25:32.743Z,24.05
2022-11-01T10:28:15.107Z,21.13
2022-11-01T10:30:48.877Z,19.08
2022-11-01T10:33:29.584Z,24.40
2022-11-01T10:36:07.028Z,22.20
2022-11-01T10:39:10.847Z,19.95
2022-11-01T10:41:43.068Z,22.20
2022-11-01T10:44:36.205Z,25.00
2022-11-01T10:47:07.248Z,22.35
2022-11-01T10:50:04.985Z,22.52
2022-11-01T10:52:44.925Z,25.38
2022-11-01T10:55:31.021Z,22.30
2022-11-01T10:58:06.969Z,23.00
2022-11-01T11:00:40.060Z,22.70
2022-11-01T11:03:24.435Z,23.48
2022-11-01T11:05:54.336Z,27.27
2022-11-01T11:08:25.376Z,18.60
2022-11-01T11:10:55.022Z,22.85
2022-11-01T11:13:25.520Z,25.85
2022-11-01T11:16:01.649Z,26.88
2022-11-01T11:18:36.731Z,24.67
2022-11-01T11:21:14.290Z,20.15
2022-11-01T11:23:46.517Z,21.88
2022-11-01T11:26:17.584Z,20.23
2022-11-01T11:28:56.403Z,22.83
2022-11-01T11:31:30.383Z,18.77
2022-11-01T11:34:02.304Z,19.85
2022-11-01T11:36:42.210Z,22.95
2022-11-01T11:39:30.784Z,21.50
2022-11-01T11:42:10.317Z,18.98
2022-11-01T11:44:50.491Z,20.23
2022-11-01T11:47:26.890Z,20.65
2022-11-01T11:49:56.657Z,19.42
2022-11-01T11:52:38.040Z,11.35
2022-11-01T11:55:24.851Z,9.75
2022-11-01T11:57:56.391Z,10.20
2022-11-01T12:00:28.307Z,9.68
2022-11-01T12:02:56.334Z,9.93
2022-11-01T12:05:28.812Z,10.00
2022-11-01T12:07:58.126Z,9.82
2022-11-01T12:10:36.664Z,9.70
2022-11-01T12:13:25.621Z,9.32
2022-11-01T12:16:16.988Z,10.60
2022-11-01T12:18:52.355Z,11.77
2022-11-01T12:21:23.739Z,12.75
2022-11-01T12:24:00.465Z,16.67
2022-11-01T12:26:31.135Z,10.23
2022-11-01T12:29:54.310Z,9.77
2022-11-01T12:32:29.404Z,12.00
2022-11-01T12:35:03.414Z,10.15
2022-11-01T12:37:57.541Z,13.77
2022-11-01T12:40:30.505Z,10.02
2022-11-01T12:43:11.089Z,10.82
2022-11-01T12:46:00.350Z,10.85
2022-11-01T12:48:36.433Z,14.00
2022-11-01T12:51:40.708Z,13.82
2022-11-01T12:54:16.471Z,13.52
2022-11-01T12:56:43.827Z,12.85
2022-11-01T12:59:15.547Z,13.18
2022-11-01T13:02:00.763Z,11.65
2022-11-01T13:05:05.410Z,14.63
2022-11-01T13:07:43.664Z,13.43
2022-11-01T13:10:25.820Z,14.40
2022-11-01T13:13:29.564Z,13.93
2022-11-01T13:16:18.934Z,13.60
2022-11-01T13:19:23.745Z,19.05
2022-11-01T13:21:56.130Z,15.07
2022-11-01T13:24:40.533Z,14.18
2022-11-01T13:27:26.375Z,11.75
2022-11-01T13:29:59.679Z,13.10
2022-11-01T13:32:45.770Z,15.23
2022-11-01T13:35:33.103Z,15.30
2022-11-01T13:38:25.180Z,13.68
2022-11-01T13:41:19.817Z,18.02
2022-11-01T13:43:53.929Z,15.98
2022-11-01T13:46:35.928Z,14.68
2022-11-01T13:49:09.356Z,13.88
2022-11-01T13:51:47.565Z,12.27
2022-11-01T13:54:14.680Z,12.40
2022-11-01T13:56:50.472Z,13.35
2022-11-01T13:59:48.193Z,19.17
2022-11-01T14:02:28.339Z,12.77
2022-11-01T14:05:10.862Z,13.20
2022-11-01T14:07:59.678Z,12.68
2022-11-01T14:10:33.029Z,16.05
2022-11-01T14:13:10.427Z,15.25
2022-11-01T14:15:55.902Z,19.60
2022-11-01T14:18:23.512Z,14.27
2022-11-01T14:20:52.604Z,13.93
2022-11-01T14:23:27.924Z,18.08
2022-11-01T14:26:23.507Z,13.03
2022-11-01T14:29:02.383Z,15.80
2022-11-01T14:31:34.265Z,13.95
2022-11-01T14:34:24.223Z,14.27
2022-11-01T14:36:54.243Z,17.05
2022-11-01T14:39:38.746Z,12.90
2022-11-01T14:42:12.875Z,14.85
2022-11-01T14:44:49.570Z,16.42
2022-11-01T14:47:27.906Z,16.10
2022-11-01T14:50:00.368Z,18.42
2022-11-01T14:52:41.799Z,14.60
2022-11-01T14:55:29.888Z,18.42
2022-11-01T14:58:23.500Z,16.55
2022-11-01T15:00:55.011Z,14.30
2022-11-01T15:03:23.950Z,14.80
2022-11-01T15:05:53.862Z,19.35
2022-11-01T15:08:29.386Z,23.05
2022-11-01T15:11:02.375Z,22.95
2022-11-01T15:13:36.161Z,19.63
2022-11-01T15:16:18.112Z,18.75
2022-11-01T15:18:51.364Z,50.35
2022-11-01T15:21:25.488Z,48.58
2022-11-01T15:23:58.479Z,32.05
2022-11-01T15:26:32.822Z,22.55
2022-11-01T15:29:04.506Z,19.60
2022-11-01T15:31:34.432Z,19.92
2022-11-01T15:34:20.383Z,23.45
2022-11-01T15:36:47.653Z,17.75
2022-11-01T15:39:18.246Z,18.45
2022-11-01T15:41:46.818Z,21.98
2022-11-01T15:44:23.347Z,22.83
2022-11-01T15:46:55.604Z,20.15
2022-11-01T15:49:56.606Z,24.20
2022-11-01T15:52:45.962Z,23.40
2022-11-01T15:55:32.289Z,22.05
2022-11-01T15:58:05.765Z,28.77
2022-11-01T16:00:43.109Z,24.45
2022-11-01T16:03:18.819Z,23.92
2022-11-01T16:05:56.909Z,28.27
2022-11-01T16:08:35.348Z,25.55
2022-11-01T16:11:03.400Z,21.85
2022-11-01T16:13:33.000Z,23.92
2022-11-01T16:16:10.680Z,27.23
2022-11-01T16:18:40.543Z,23.58
2022-11-01T16:21:23.422Z,27.17
2022-11-01T16:24:09.222Z,23.65
2022-11-01T16:26:59.381Z,26.23
2022-11-01T16:29:53.083Z,20.20
2022-11-01T16:32:34.070Z,22.52
2022-11-01T16:35:35.571Z,20.60
2022-11-01T16:38:04.748Z,20.77
2022-11-01T16:40:34.570Z,21.85
2022-11-01T16:43:01.974Z,22.27
2022-11-01T16:45:30.108Z,20.60
2022-11-01T16:47:58.575Z,21.58
2022-11-01T16:50:28.967Z,24.58
2022-11-01T16:52:57.068Z,19.45
2022-11-01T16:55:29.670Z,22.55
2022-11-01T16:57:58.932Z,22.60
2022-11-01T17:00:28.134Z,24.30
2022-11-01T17:02:57.031Z,26.23
2022-11-01T17:05:31.138Z,22.98
2022-11-01T17:08:00.055Z,23.77
2022-11-01T17:10:31.589Z,30.38
2022-11-01T17:13:03.453Z,23.63
2022-11-01T17:15:37.483Z,25.13
2022-11-01T17:18:28.913Z,41.03
2022-11-01T17:21:00.333Z,38.88
2022-11-01T17:23:29.504Z,34.55
2022-11-01T17:25:58.531Z,32.42
2022-11-01T17:28:26.510Z,31.95
2022-11-01T17:30:55.482Z,24.58
2022-11-01T17:33:25.999Z,33.42
2022-11-01T17:35:55.514Z,30.92
2022-11-01T17:38:30.210Z,33.83
2022-11-01T17:41:04.903Z,33.38
2022-11-01T17:43:36.459Z,30.58
2022-11-01T17:46:19.017Z,32.17
2022-11-01T17:48:46.971Z,32.60
2022-11-01T17:51:17.344Z,35.80
2022-11-01T17:53:45.465Z,33.05
2022-11-01T17:56:14.851Z,36.25
2022-11-01T17:58:49.430Z,35.28
2022-11-01T18:01:25.568Z,35.78
2022-11-01T18:03:54.943Z,39.08
2022-11-01T18:06:26.312Z,37.80
2022-11-01T18:08:54.845Z,42.72
2022-11-01T18:11:40.682Z,54.13
2022-11-01T18:14:29.899Z,57.90
2022-11-01T18:17:19.268Z,60.65
2022-11-01T18:20:26.430Z,67.43
2022-11-01T18:22:58.591Z,54.95
2022-11-01T18:25:34.610Z,61.30
2022-11-01T18:28:20.468Z,62.38
2022-11-01T18:30:59.967Z,54.00
2022-11-01T18:33:57.585Z,53.08
2022-11-01T18:36:46.467Z,43.90
2022-11-01T18:39:25.500Z,45.58
2022-11-01T18:41:54.071Z,45.33
2022-11-01T18:44:23.537Z,43.10
2022-11-01T18:47:04.508Z,43.83
2022-11-01T18:49:33.301Z,41.85
2022-11-01T18:52:02.352Z,46.63
2022-11-01T18:54:33.658Z,44.72
2022-11-01T18:57:17.701Z,47.75
2022-11-01T18:59:50.915Z,42.55
2022-11-01T19:02:28.515Z,42.50
2022-11-01T19:05:21.862Z,42.05
2022-11-01T19:08:20.615Z,35.85
2022-11-01T19:10:52.153Z,37.60
2022-11-01T19:13:35.959Z,45.38
2022-11-01T19:16:10.165Z,37.25
2022-11-01T19:18:43.433Z,37.83
2022-11-01T19:21:21.466Z,33.97
2022-11-01T19:23:58.868Z,40.10
2022-11-01T19:26:37.985Z,33.92
2022-11-01T19:29:16.391Z,35.80
2022-11-01T19:31:49.204Z,40.33
2022-11-01T19:34:21.669Z,42.35
2022-11-01T19:36:53.063Z,37.35
2022-11-01T19:39:28.643Z,39.53
2022-11-01T19:42:07.458Z,37.75
2022-11-01T19:44:36.995Z,37.40
2022-11-01T19:47:40.925Z,35.38
2022-11-01T19:50:27.874Z,34.92
2022-11-01T19:52:59.926Z,39.22
2022-11-01T19:55:39.821Z,36.35
2022-11-01T19:58:25.451Z,34.40
2022-11-01T20:01:18.000Z,33.65
2022-11-01T20:03:53.575Z,32.67
2022-11-01T20:06:29.366Z,35.90
2022-11-01T20:09:05.551Z,38.33
2022-11-01T20:14:04.694Z,45.40
2022-11-01T20:16:36.726Z,43.55
2022-11-01T20:19:05.845Z,47.08
2022-11-01T20:21:35.859Z,49.88
2022-11-01T20:24:05.972Z,37.60
2022-11-01T20:26:34.650Z,36.50
2022-11-01T20:29:03.853Z,38.90
2022-11-01T20:31:33.069Z,35.00
2022-11-01T20:34:02.913Z,36.22
2022-11-01T20:36:31.803Z,37.10
2022-11-01T20:39:00.525Z,36.88
2022-11-01T20:41:30.675Z,34.33
2022-11-01T20:44:00.849Z,36.45
2022-11-01T20:46:29.209Z,33.05
2022-11-01T20:48:57.810Z,37.10
2022-11-01T20:51:27.255Z,30.42
2022-11-01T20:53:56.240Z,33.05
2022-11-01T20:56:28.519Z,32.45
2022-11-01T20:58:57.217Z,32.03
2022-11-01T21:01:25.508Z,31.33
2022-11-01T21:03:54.959Z,34.83
2022-11-01T21:06:26.732Z,33.63
2022-11-01T21:09:05.087Z,28.30
2022-11-01T21:11:45.356Z,35.30
2022-11-01T21:14:21.629Z,34.33
2022-11-01T21:16:50.259Z,35.95
2022-11-01T21:19:23.263Z,33.60
2022-11-01T21:22:00.494Z,38.00
2022-11-01T21:24:34.416Z,34.88
2022-11-01T21:27:14.111Z,31.20
2022-11-01T21:29:45.105Z,39.17
2022-11-01T21:32:27.483Z,35.58
2022-11-01T21:34:55.337Z,36.40
2022-11-01T21:37:24.057Z,36.10
2022-11-01T21:40:04.490Z,33.50
2022-11-01T21:42:36.788Z,36.55
2022-11-01T21:45:31.859Z,32.50
2022-11-01T21:48:21.858Z,33.67
2022-11-01T21:50:49.635Z,31.58
2022-11-01T21:53:16.744Z,31.65
2022-11-01T21:55:43.982Z,31.30
2022-11-01T21:58:13.368Z,32.83
2022-11-01T22:00:40.603Z,34.25
2022-11-01T22:03:07.786Z,33.25
2022-11-01T22:05:38.099Z,37.75
2022-11-01T22:08:07.294Z,30.35
2022-11-01T22:10:37.537Z,36.45
2022-11-01T22:13:06.994Z,37.72
2022-11-01T22:15:34.380Z,31.17
2022-11-01T22:18:01.409Z,31.70
2022-11-01T22:20:30.814Z,32.08
2022-11-01T22:22:57.864Z,30.80
2022-11-01T22:25:25.597Z,34.42
2022-11-01T22:27:52.580Z,29.48
2022-11-01T22:30:19.946Z,30.00
2022-11-01T22:32:47.445Z,33.97
2022-11-01T22:35:14.723Z,32.08
2022-11-01T22:37:44.155Z,32.45
2022-11-01T22:40:12.914Z,31.65
2022-11-01T22:42:40.913Z,33.83
2022-11-01T22:45:15.922Z,29.00
2022-11-01T22:47:43.190Z,34.53
2022-11-01T22:50:14.555Z,24.50
2022-11-01T22:52:45.158Z,30.67
2022-11-01T22:55:15.355Z,36.30
2022-11-01T22:57:47.966Z,27.63
2022-11-01T23:00:23.035Z,30.95
2022-11-01T23:02:59.021Z,32.83
2022-11-01T23:05:26.656Z,30.88
2022-11-01T23:08:00.641Z,33.10
2022-11-01T23:10:37.182Z,29.65
2022-11-01T23:13:29.207Z,28.35
2022-11-01T23:16:02.044Z,31.80
2022-11-01T23:18:33.382Z,30.50
2022-11-01T23:21:05.187Z,34.70
2022-11-01T23:23:35.960Z,32.90
2022-11-01T23:26:03.776Z,38.22
2022-11-01T23:28:37.312Z,37.03
2022-11-01T23:31:05.146Z,33.03
2022-11-01T23:33:40.258Z,32.40
2022-11-01T23:36:15.177Z,36.50
2022-11-01T23:38:48.777Z,32.28
2022-11-01T23:41:21.774Z,38.88
2022-11-01T23:43:51.904Z,34.40
2022-11-01T23:46:19.593Z,31.05
2022-11-01T23:48:51.636Z,32.35
2022-11-01T23:51:23.419Z,34.72
2022-11-01T23:53:54.381Z,35.20
2022-11-01T23:56:22.841Z,31.15
2022-11-01T23:58:55.964Z,33.88
